Time;durP1;ratioP1;P1;durP2;ratioP2;P2;SDS_P1;SDS_P2;PMS_P1;PMS_P2;Temp;Humidity;BMP_temperature;BMP_pressure;BME280_temperature;BME280_humidity;BME280_pressure;Samples;Min_cycle;Max_cycle;Signal;HPM_P1;HPM_P2
2022/07/30 00:09:22;;;;;;;8.10;5.00;;;;;;;19.06;60.86;98525.02;433880;1268;109930;-40
2022/07/30 00:19:30;;;;;;;7.10;5.80;;;;;;;19.00;61.06;98514.05;433886;1268;108952;-40
2022/07/30 00:29:37;;;;;;;6.50;5.30;;;;;;;18.89;61.18;98507.64;433868;1268;97539;-40
2022/07/30 00:39:50;;;;;;;6.10;4.50;;;;;;;18.88;61.34;98503.04;433882;1267;110718;-40
2022/07/30 00:49:57;;;;;;;9.40;4.40;;;;;;;18.90;61.83;98487.85;433942;1268;108638;-40
2022/07/30 01:00:07;;;;;;;12.20;3.90;;;;;;;18.80;61.68;98479.30;434058;1267;96600;-40
2022/07/30 01:10:17;;;;;;;7.50;3.80;;;;;;;18.69;61.73;98474.02;434924;1257;111042;-41
2022/07/30 01:20:28;;;;;;;7.10;3.20;;;;;;;18.58;61.52;98471.40;433271;1270;107770;-40
2022/07/30 01:30:42;;;;;;;5.50;3.80;;;;;;;18.57;61.63;98458.49;433295;1269;97881;-42
2022/07/30 01:40:51;;;;;;;7.80;4.00;;;;;;;18.49;61.74;98444.36;433608;1269;111229;-40
2022/07/30 01:51:02;;;;;;;5.00;3.60;;;;;;;18.32;62.04;98424.09;433305;1270;109432;-40
2022/07/30 02:01:10;;;;;;;4.80;2.90;;;;;;;18.26;62.15;98414.31;433361;1269;97473;-40
2022/07/30 02:21:25;;;;;;;3.60;3.20;;;;;;;18.03;62.76;98405.94;432629;1269;108841;-40
2022/07/30 02:31:43;;;;;;;4.00;2.20;;;;;;;17.90;62.83;98409.05;433690;1269;107258;-40
2022/07/30 02:41:52;;;;;;;8.70;3.20;;;;;;;17.83;63.24;98390.88;433585;1269;97899;-40
2022/07/30 02:52:01;;;;;;;6.30;2.50;;;;;;;17.81;63.40;98397.11;433360;1269;107808;-41
2022/07/30 03:02:11;;;;;;;3.70;2.60;;;;;;;17.75;63.41;98391.38;433611;1269;108869;-40
2022/07/30 03:12:21;;;;;;;4.80;2.90;;;;;;;17.73;63.50;98393.31;433295;1268;97836;-42
2022/07/30 03:22:29;;;;;;;7.80;4.30;;;;;;;17.78;63.41;98404.24;433555;1268;109073;-41
2022/07/30 03:32:40;;;;;;;5.90;3.60;;;;;;;17.66;63.64;98396.41;433576;1268;97887;-40
2022/07/30 03:42:49;;;;;;;5.50;3.50;;;;;;;17.64;64.04;98397.77;433846;1268;98161;-40
2022/07/30 03:52:57;;;;;;;6.10;2.50;;;;;;;17.66;64.13;98401.39;433693;1268;110902;-41
2022/07/30 04:03:04;;;;;;;8.90;2.60;;;;;;;17.67;64.18;98395.02;433575;1268;108630;-41
2022/07/30 04:13:11;;;;;;;4.10;2.80;;;;;;;17.71;64.29;98401.14;433701;1268;98569;-40
2022/07/30 04:33:26;;;;;;;4.10;2.60;;;;;;;17.80;64.33;98384.98;433596;1268;108625;-41
2022/07/30 04:43:34;;;;;;;5.50;2.80;;;;;;;17.82;64.49;98387.63;433418;1268;97876;-41
2022/07/30 04:53:42;;;;;;;13.70;4.30;;;;;;;17.78;65.25;98398.10;433877;1268;110293;-41
2022/07/30 05:03:52;;;;;;;6.70;3.40;;;;;;;17.96;65.03;98390.37;433691;1268;107440;-41
2022/07/30 05:14:00;;;;;;;6.10;3.00;;;;;;;18.34;65.12;98382.67;433593;1268;97572;-41
2022/07/30 05:24:08;;;;;;;7.30;3.60;;;;;;;18.57;65.14;98394.45;433614;1268;111293;-42
2022/07/30 05:34:15;;;;;;;8.30;4.10;;;;;;;19.06;65.37;98406.40;433365;1268;340586;-40
2022/07/30 05:44:23;;;;;;;7.70;3.80;;;;;;;19.69;65.05;98402.02;433462;1268;97594;-39
2022/07/30 05:54:30;;;;;;;8.70;4.80;;;;;;;20.05;64.81;98387.77;433365;1268;97857;-41
2022/07/30 06:04:37;;;;;;;4.40;3.40;;;;;;;20.92;63.90;98371.30;433732;1268;110918;-39
2022/07/30 06:14:52;;;;;;;5.00;4.50;;;;;;;22.13;62.86;98374.48;433799;1268;107068;-39
2022/07/30 06:24:59;;;;;;;10.80;5.00;;;;;;;22.71;61.66;98370.68;433591;1268;97882;-40
2022/07/30 06:35:07;;;;;;;7.60;5.00;;;;;;;22.03;61.21;98371.58;433313;1268;96685;-40
2022/07/30 06:45:14;;;;;;;7.50;4.80;;;;;;;22.58;61.38;98373.26;433793;1268;111117;-40
2022/07/30 06:55:21;;;;;;;10.50;6.20;;;;;;;22.40;61.03;98367.16;433440;1268;108767;-40
2022/07/30 07:15:35;;;;;;;13.50;7.40;;;;;;;23.16;60.91;98342.69;433693;1268;111323;-40
2022/07/30 07:25:43;;;;;;;9.30;6.60;;;;;;;23.47;60.19;98341.56;433386;1268;109070;-40
2022/07/30 07:35:53;;;;;;;9.10;6.50;;;;;;;23.00;59.97;98339.30;433396;1268;108893;-42
2022/07/30 07:46:00;;;;;;;12.60;7.20;;;;;;;22.91;60.47;98332.64;433226;1268;97906;-40
2022/07/30 08:06:14;;;;;;;10.50;5.60;;;;;;;23.89;60.14;98318.39;433540;1268;109380;-40
2022/07/30 08:16:21;;;;;;;6.90;6.00;;;;;;;24.55;59.35;98313.77;433444;1268;109384;-40
2022/07/30 08:26:29;;;;;;;8.70;6.00;;;;;;;24.62;58.79;98313.11;433488;1268;97933;-40
2022/07/30 08:36:37;;;;;;;6.80;5.50;;;;;;;24.83;58.20;98308.63;433528;1268;110993;-40
2022/07/30 08:46:46;;;;;;;9.90;5.60;;;;;;;24.86;57.40;98304.71;433590;1268;108858;-40
2022/07/30 08:56:54;;;;;;;7.40;5.60;;;;;;;25.45;57.34;98291.05;433432;1268;109580;-42
2022/07/30 09:07:03;;;;;;;5.70;5.20;;;;;;;25.62;57.00;98285.20;433619;1268;96669;-41
2022/07/30 09:17:13;;;;;;;10.00;6.70;;;;;;;25.40;56.56;98277.27;433562;1268;111075;-40
2022/07/30 09:27:20;;;;;;;7.50;6.40;;;;;;;25.15;56.70;98264.58;433560;1268;109245;-39
2022/07/30 09:37:25;;;;;;;;;;;;;;;24.97;56.85;98262.25;433844;1268;108953;-40
2022/07/30 09:47:36;;;;;;;7.10;6.40;;;;;;;24.77;56.92;98256.19;433566;1268;97861;-39
2022/07/30 10:08:06;;;;;;;11.00;8.40;;;;;;;24.71;57.70;98239.05;433366;1268;109084;-40
2022/07/30 10:18:23;;;;;;;10.60;8.00;;;;;;;24.81;58.08;98240.50;433285;1268;108963;-42
2022/07/30 10:28:31;;;;;;;8.70;7.50;;;;;;;25.22;57.52;98238.59;432697;1268;98138;-42
2022/07/30 10:38:47;;;;;;;10.20;7.60;;;;;;;24.99;57.50;98224.14;432824;1268;111289;-41
2022/07/30 10:49:08;;;;;;;10.00;7.10;;;;;;;24.92;57.93;98232.91;433452;1268;108672;-40
2022/07/30 10:59:22;;;;;;;9.20;7.40;;;;;;;24.83;58.00;98232.36;433525;1268;98232;-42
2022/07/30 11:09:41;;;;;;;10.30;8.20;;;;;;;25.12;58.15;98230.23;433499;1268;97496;-40
2022/07/30 11:20:11;;;;;;;9.60;8.10;;;;;;;24.91;58.18;98220.83;432773;1268;111307;-41
2022/07/30 11:30:31;;;;;;;7.50;6.70;;;;;;;24.70;58.53;98213.85;432583;1268;108819;-41
2022/07/30 11:40:59;;;;;;;8.20;7.20;;;;;;;24.66;58.66;98206.98;433179;1268;97764;-41
2022/07/30 11:51:05;;;;;;;8.70;7.80;;;;;;;24.38;58.94;98202.71;433214;1268;97502;-41
2022/07/30 12:01:14;;;;;;;8.80;7.00;;;;;;;24.11;59.55;98204.84;433350;1268;109056;-41
2022/07/30 12:11:21;;;;;;;9.50;7.60;;;;;;;23.83;60.05;98198.38;433227;1268;108798;-41
2022/07/30 12:31:35;;;;;;;10.60;8.90;;;;;;;22.80;61.96;98192.11;432595;1268;108782;-40
2022/07/30 12:41:45;;;;;;;11.00;9.90;;;;;;;22.45;62.77;98210.23;433038;1268;97922;-41
2022/07/30 12:51:53;;;;;;;12.00;9.10;;;;;;;21.98;63.54;98199.15;432931;1268;96668;-41
2022/07/30 13:02:06;;;;;;;14.20;10.10;;;;;;;21.75;64.44;98196.73;433113;1268;108849;-40
2022/07/30 13:12:14;;;;;;;14.90;10.20;;;;;;;21.69;65.63;98213.79;433159;1268;97493;-41
2022/07/30 13:22:21;;;;;;;18.10;12.30;;;;;;;21.61;66.42;98204.71;433409;1268;111562;-41
2022/07/30 13:32:28;;;;;;;12.70;10.50;;;;;;;21.33;67.18;98190.24;433270;1268;108653;-41
2022/07/30 13:42:35;;;;;;;15.50;11.30;;;;;;;21.19;67.93;98198.13;433200;1268;97302;-41
2022/07/30 13:52:42;;;;;;;14.70;12.30;;;;;;;21.02;68.64;98197.35;433220;1268;109931;-41
2022/07/30 14:02:50;;;;;;;12.60;11.30;;;;;;;21.12;69.21;98202.17;433242;1268;98186;-41
2022/07/30 14:12:58;;;;;;;14.10;11.60;;;;;;;20.98;69.59;98200.03;433277;1268;110957;-42
2022/07/30 14:23:05;;;;;;;16.10;12.60;;;;;;;20.92;70.21;98194.81;433324;1268;108883;-40
2022/07/30 14:33:13;;;;;;;14.70;13.20;;;;;;;21.07;70.78;98191.52;433224;1268;98312;-43
2022/07/30 14:43:20;;;;;;;13.70;11.60;;;;;;;21.09;70.86;98172.50;433312;1268;108867;-42
2022/07/30 14:53:27;;;;;;;13.00;11.80;;;;;;;21.14;71.41;98156.10;433381;1268;97886;-42
2022/07/30 15:03:33;;;;;;;17.50;13.20;;;;;;;21.26;71.41;98155.91;433365;1268;111054;-40
2022/07/30 15:13:40;;;;;;;14.60;12.80;;;;;;;21.15;71.92;98155.13;433377;1268;108226;-42
2022/07/30 15:23:56;;;;;;;14.40;12.60;;;;;;;21.06;72.31;98153.46;433790;1268;97887;-41
2022/07/30 15:44:12;;;;;;;10.50;8.90;;;;;;;20.80;73.35;98141.59;433159;1268;97907;-42
2022/07/30 15:54:19;;;;;;;10.80;8.10;;;;;;;20.39;74.44;98141.51;432765;1267;111102;-42
2022/07/30 16:04:31;;;;;;;10.70;9.00;;;;;;;20.14;74.85;98135.35;433308;1268;108845;-41
2022/07/30 16:14:39;;;;;;;9.70;8.70;;;;;;;19.98;75.27;98124.83;433250;1267;98037;-41
2022/07/30 16:24:46;;;;;;;10.50;9.50;;;;;;;19.75;76.15;98123.61;433224;1268;108834;-43
2022/07/30 16:34:53;;;;;;;14.60;10.30;;;;;;;19.70;76.50;98119.57;433255;1268;97910;-41
2022/07/30 16:45:00;;;;;;;14.50;11.20;;;;;;;19.53;76.97;98121.27;433741;1268;111046;-41
2022/07/30 16:55:09;;;;;;;12.20;9.90;;;;;;;19.25;78.03;98126.12;433279;1267;108143;-41
2022/07/30 17:05:16;;;;;;;11.80;10.00;;;;;;;19.13;78.31;98133.15;433651;1268;97370;-42
2022/07/30 17:15:24;;;;;;;11.20;10.10;;;;;;;19.05;78.29;98132.29;433485;1268;108890;-42
2022/07/30 17:25:39;;;;;;;12.20;11.10;;;;;;;19.04;78.79;98137.50;433522;1267;96596;-41
2022/07/30 17:35:46;;;;;;;14.30;13.00;;;;;;;19.01;78.75;98128.84;433348;1268;331323;-42
2022/07/30 17:45:53;;;;;;;14.60;13.00;;;;;;;18.90;79.33;98125.50;433468;1268;108392;-42
2022/07/30 17:56:00;;;;;;;14.40;12.90;;;;;;;18.78;80.06;98120.79;433743;1267;97837;-41
2022/07/30 18:06:08;;;;;;;14.90;13.40;;;;;;;18.76;80.05;98119.12;433655;1268;109382;-41
2022/07/30 18:16:15;;;;;;;14.50;13.00;;;;;;;18.77;80.23;98121.02;433566;1268;97932;-42
2022/07/30 18:36:28;;;;;;;12.80;11.60;;;;;;;18.93;80.46;98121.92;433762;1268;108822;-42
2022/07/30 18:46:36;;;;;;;15.80;11.60;;;;;;;18.99;80.40;98123.45;433244;1267;98061;-42
2022/07/30 18:56:43;;;;;;;12.30;11.20;;;;;;;19.04;80.35;98121.11;433334;1268;109664;-42
2022/07/30 19:06:50;;;;;;;13.80;12.40;;;;;;;19.07;80.34;98118.70;433484;1268;98172;-42
2022/07/30 19:16:56;;;;;;;15.40;13.20;;;;;;;18.98;80.10;98120.48;433896;1267;110707;-43
2022/07/30 19:27:05;;;;;;;11.20;10.20;;;;;;;18.94;80.52;98114.45;433365;1268;108774;-40
2022/07/30 19:37:18;;;;;;;14.50;12.60;;;;;;;19.04;80.46;98107.77;433424;1270;97561;-40
2022/07/30 19:57:31;;;;;;;13.40;12.00;;;;;;;18.99;80.54;98093.13;433545;1268;96670;-40
2022/07/30 20:07:58;;;;;;;16.20;14.60;;;;;;;18.95;80.58;98082.65;433765;1267;110461;-40
2022/07/30 20:18:05;;;;;;;13.90;12.50;;;;;;;18.87;80.58;98073.20;433518;1268;107034;-40
2022/07/30 20:28:12;;;;;;;12.50;11.20;;;;;;;18.73;80.80;98064.10;433607;1268;97593;-40
2022/07/30 20:48:33;;;;;;;5.60;5.10;;;;;;;18.44;80.96;98057.20;433685;1268;98192;-40
2022/07/30 20:58:41;;;;;;;4.60;4.20;;;;;;;18.28;81.19;98055.34;433614;1268;111051;-40
2022/07/30 21:08:54;;;;;;;5.50;4.90;;;;;;;18.05;81.33;98053.67;433642;1268;108063;-40
2022/07/30 21:29:09;;;;;;;5.90;5.40;;;;;;;17.76;82.06;98049.52;433539;1268;108185;-40
2022/07/30 21:39:16;;;;;;;8.10;5.10;;;;;;;17.86;82.11;98042.15;433105;1268;97932;-42
2022/07/30 21:49:23;;;;;;;5.60;5.10;;;;;;;17.86;82.07;98035.79;433772;1268;111157;-40
2022/07/30 21:59:30;;;;;;;6.20;5.60;;;;;;;17.80;82.18;98030.80;433396;1267;108836;-40
2022/07/30 22:09:39;;;;;;;5.00;4.10;;;;;;;17.79;82.06;98029.53;433683;1268;97886;-41
2022/07/30 22:19:46;;;;;;;5.00;4.60;;;;;;;17.73;82.11;98022.70;433818;1268;109240;-39
2022/07/30 22:29:54;;;;;;;6.30;5.80;;;;;;;17.73;82.11;98019.55;433582;1268;97475;-40
2022/07/30 22:40:02;;;;;;;6.90;6.30;;;;;;;17.73;82.41;98009.44;433799;1268;111409;-42
2022/07/30 22:50:11;;;;;;;5.10;4.60;;;;;;;17.62;82.27;98000.61;433507;1268;108942;-41
2022/07/30 23:00:24;;;;;;;7.60;3.70;;;;;;;17.53;82.30;97990.68;433342;1268;97926;-40
2022/07/30 23:10:35;;;;;;;2.40;2.20;;;;;;;17.45;82.62;97982.77;433685;1268;108827;-40
2022/07/30 23:20:42;;;;;;;3.70;1.80;;;;;;;17.35;82.58;97987.05;433426;1268;97883;-40
2022/07/30 23:30:49;;;;;;;2.20;1.30;;;;;;;17.27;82.76;97977.16;433451;1268;110074;-40
2022/07/30 23:40:59;;;;;;;1.10;1.00;;;;;;;17.18;82.99;97978.83;433248;1268;108760;-39
2022/07/30 23:51:07;;;;;;;1.20;1.20;;;;;;;17.06;83.06;97970.29;433569;1268;97543;-39
